sensor_id;sensor_type;location;lat;lon;timestamp;temperature;humidity
71942;DHT22;59997;53.300;-6.260;2023-07-20T00:00:26;12.58;89.71
71942;DHT22;59997;53.300;-6.260;2023-07-20T00:02:52;12.53;89.81
71942;DHT22;59997;53.300;-6.260;2023-07-20T00:05:17;12.49;89.80
71942;DHT22;59997;53.300;-6.260;2023-07-20T00:07:44;12.39;90.06
71942;DHT22;59997;53.300;-6.260;2023-07-20T00:10:09;12.36;90.27
71942;DHT22;59997;53.300;-6.260;2023-07-20T00:12:35;12.33;90.47
71942;DHT22;59997;53.300;-6.260;2023-07-20T00:15:00;12.29;90.63
71942;DHT22;59997;53.300;-6.260;2023-07-20T00:17:26;12.23;90.80
71942;DHT22;59997;53.300;-6.260;2023-07-20T00:19:52;12.22;90.89
71942;DHT22;59997;53.300;-6.260;2023-07-20T00:22:17;12.18;90.99
71942;DHT22;59997;53.300;-6.260;2023-07-20T00:24:43;12.13;91.03
71942;DHT22;59997;53.300;-6.260;2023-07-20T00:27:08;12.16;91.10
71942;DHT22;59997;53.300;-6.260;2023-07-20T00:29:34;12.19;91.14
71942;DHT22;59997;53.300;-6.260;2023-07-20T00:32:00;12.19;91.20
71942;DHT22;59997;53.300;-6.260;2023-07-20T00:34:26;12.15;91.21
71942;DHT22;59997;53.300;-6.260;2023-07-20T00:36:51;12.16;91.18
71942;DHT22;59997;53.300;-6.260;2023-07-20T00:39:17;12.16;91.24
71942;DHT22;59997;53.300;-6.260;2023-07-20T00:41:42;12.12;91.26
71942;DHT22;59997;53.300;-6.260;2023-07-20T00:44:08;12.09;91.23
71942;DHT22;59997;53.300;-6.260;2023-07-20T00:46:33;12.08;91.31
71942;DHT22;59997;53.300;-6.260;2023-07-20T00:48:59;12.04;91.31
71942;DHT22;59997;53.300;-6.260;2023-07-20T00:51:25;12.02;91.34
71942;DHT22;59997;53.300;-6.260;2023-07-20T00:53:52;12.02;91.34
71942;DHT22;59997;53.300;-6.260;2023-07-20T00:56:19;11.99;91.38
71942;DHT22;59997;53.300;-6.260;2023-07-20T00:58:45;11.92;91.40
71942;DHT22;59997;53.300;-6.260;2023-07-20T01:01:10;11.89;91.42
71942;DHT22;59997;53.300;-6.260;2023-07-20T01:03:36;11.92;91.47
71942;DHT22;59997;53.300;-6.260;2023-07-20T01:06:12;11.87;91.47
71942;DHT22;59997;53.300;-6.260;2023-07-20T01:08:45;11.89;91.52
71942;DHT22;59997;53.300;-6.260;2023-07-20T01:11:16;11.89;91.51
71942;DHT22;59997;53.300;-6.260;2023-07-20T01:13:47;11.91;91.54
71942;DHT22;59997;53.300;-6.260;2023-07-20T01:16:12;11.95;91.56
71942;DHT22;59997;53.300;-6.260;2023-07-20T01:18:37;11.95;91.56
71942;DHT22;59997;53.300;-6.260;2023-07-20T01:21:09;11.94;91.56
71942;DHT22;59997;53.300;-6.260;2023-07-20T01:24:12;11.88;91.55
71942;DHT22;59997;53.300;-6.260;2023-07-20T01:32:47;11.85;91.66
71942;DHT22;59997;53.300;-6.260;2023-07-20T01:35:14;11.82;91.67
71942;DHT22;59997;53.300;-6.260;2023-07-20T01:37:43;11.82;91.71
71942;DHT22;59997;53.300;-6.260;2023-07-20T01:40:10;11.82;91.76
71942;DHT22;59997;53.300;-6.260;2023-07-20T01:42:36;11.80;91.74
71942;DHT22;59997;53.300;-6.260;2023-07-20T01:45:02;11.82;91.74
71942;DHT22;59997;53.300;-6.260;2023-07-20T01:47:28;11.80;91.80
71942;DHT22;59997;53.300;-6.260;2023-07-20T01:49:54;11.70;91.78
71942;DHT22;59997;53.300;-6.260;2023-07-20T01:52:19;11.66;91.80
71942;DHT22;59997;53.300;-6.260;2023-07-20T01:54:45;11.56;91.85
71942;DHT22;59997;53.300;-6.260;2023-07-20T01:57:10;11.50;91.86
71942;DHT22;59997;53.300;-6.260;2023-07-20T01:59:36;11.43;91.91
71942;DHT22;59997;53.300;-6.260;2023-07-20T02:02:01;11.40;91.93
71942;DHT22;59997;53.300;-6.260;2023-07-20T02:04:26;11.42;91.89
71942;DHT22;59997;53.300;-6.260;2023-07-20T02:06:52;11.37;91.92
71942;DHT22;59997;53.300;-6.260;2023-07-20T02:09:17;11.36;92.01
71942;DHT22;59997;53.300;-6.260;2023-07-20T02:11:43;11.40;91.99
71942;DHT22;59997;53.300;-6.260;2023-07-20T02:14:08;11.40;92.01
71942;DHT22;59997;53.300;-6.260;2023-07-20T02:16:34;11.47;92.04
71942;DHT22;59997;53.300;-6.260;2023-07-20T02:18:59;11.53;92.02
71942;DHT22;59997;53.300;-6.260;2023-07-20T02:21:25;11.64;92.04
71942;DHT22;59997;53.300;-6.260;2023-07-20T02:23:50;11.66;92.06
71942;DHT22;59997;53.300;-6.260;2023-07-20T02:26:16;11.66;92.07
71942;DHT22;59997;53.300;-6.260;2023-07-20T02:28:41;11.67;92.05
71942;DHT22;59997;53.300;-6.260;2023-07-20T02:31:07;11.69;92.06
71942;DHT22;59997;53.300;-6.260;2023-07-20T02:33:32;11.67;92.05
71942;DHT22;59997;53.300;-6.260;2023-07-20T02:35:58;11.67;92.07
71942;DHT22;59997;53.300;-6.260;2023-07-20T02:38:23;11.67;92.09
71942;DHT22;59997;53.300;-6.260;2023-07-20T02:40:49;11.71;92.08
71942;DHT22;59997;53.300;-6.260;2023-07-20T02:43:15;11.73;92.15
71942;DHT22;59997;53.300;-6.260;2023-07-20T02:45:41;11.77;92.11
71942;DHT22;59997;53.300;-6.260;2023-07-20T02:48:08;11.80;92.11
71942;DHT22;59997;53.300;-6.260;2023-07-20T02:50:33;11.81;92.08
71942;DHT22;59997;53.300;-6.260;2023-07-20T02:53:00;11.77;92.02
71942;DHT22;59997;53.300;-6.260;2023-07-20T02:55:26;11.71;92.04
71942;DHT22;59997;53.300;-6.260;2023-07-20T02:57:51;11.64;92.00
71942;DHT22;59997;53.300;-6.260;2023-07-20T03:00:17;11.60;92.05
71942;DHT22;59997;53.300;-6.260;2023-07-20T03:02:45;11.59;91.96
71942;DHT22;59997;53.300;-6.260;2023-07-20T03:05:13;11.53;92.00
71942;DHT22;59997;53.300;-6.260;2023-07-20T03:07:39;11.40;91.99
71942;DHT22;59997;53.300;-6.260;2023-07-20T03:10:05;11.33;91.99
71942;DHT22;59997;53.300;-6.260;2023-07-20T03:12:34;11.30;91.98
71942;DHT22;59997;53.300;-6.260;2023-07-20T03:15:01;11.32;92.00
71942;DHT22;59997;53.300;-6.260;2023-07-20T03:17:26;11.26;92.03
71942;DHT22;59997;53.300;-6.260;2023-07-20T03:19:52;11.25;92.06
71942;DHT22;59997;53.300;-6.260;2023-07-20T03:22:17;11.26;92.05
71942;DHT22;59997;53.300;-6.260;2023-07-20T03:24:43;11.26;92.06
71942;DHT22;59997;53.300;-6.260;2023-07-20T03:27:09;11.25;92.08
71942;DHT22;59997;53.300;-6.260;2023-07-20T03:29:34;11.26;92.12
71942;DHT22;59997;53.300;-6.260;2023-07-20T03:32:00;11.28;92.08
71942;DHT22;59997;53.300;-6.260;2023-07-20T03:34:25;11.28;92.08
71942;DHT22;59997;53.300;-6.260;2023-07-20T03:36:51;11.26;92.14
71942;DHT22;59997;53.300;-6.260;2023-07-20T03:39:16;11.30;92.14
71942;DHT22;59997;53.300;-6.260;2023-07-20T03:41:42;11.35;92.17
71942;DHT22;59997;53.300;-6.260;2023-07-20T03:44:08;11.37;92.13
71942;DHT22;59997;53.300;-6.260;2023-07-20T03:46:34;11.36;92.17
71942;DHT22;59997;53.300;-6.260;2023-07-20T03:49:00;11.36;92.16
71942;DHT22;59997;53.300;-6.260;2023-07-20T03:51:26;11.40;92.12
71942;DHT22;59997;53.300;-6.260;2023-07-20T03:53:51;11.36;92.14
71942;DHT22;59997;53.300;-6.260;2023-07-20T03:56:17;11.35;92.15
71942;DHT22;59997;53.300;-6.260;2023-07-20T03:58:42;11.33;92.16
71942;DHT22;59997;53.300;-6.260;2023-07-20T04:01:08;11.36;92.16
71942;DHT22;59997;53.300;-6.260;2023-07-20T04:03:35;11.37;92.15
71942;DHT22;59997;53.300;-6.260;2023-07-20T04:06:01;11.40;92.17
71942;DHT22;59997;53.300;-6.260;2023-07-20T04:08:27;11.40;92.15
71942;DHT22;59997;53.300;-6.260;2023-07-20T04:10:52;11.42;92.16
71942;DHT22;59997;53.300;-6.260;2023-07-20T04:13:18;11.39;92.14
71942;DHT22;59997;53.300;-6.260;2023-07-20T04:15:44;11.36;92.13
71942;DHT22;59997;53.300;-6.260;2023-07-20T04:18:09;11.33;92.15
71942;DHT22;59997;53.300;-6.260;2023-07-20T04:20:35;11.33;92.14
71942;DHT22;59997;53.300;-6.260;2023-07-20T04:23:00;11.30;92.16
71942;DHT22;59997;53.300;-6.260;2023-07-20T04:25:26;11.32;92.18
71942;DHT22;59997;53.300;-6.260;2023-07-20T04:27:51;11.36;92.17
71942;DHT22;59997;53.300;-6.260;2023-07-20T04:30:17;11.37;92.15
71942;DHT22;59997;53.300;-6.260;2023-07-20T04:32:46;11.37;92.15
71942;DHT22;59997;53.300;-6.260;2023-07-20T04:38:00;11.40;92.17
71942;DHT22;59997;53.300;-6.260;2023-07-20T04:40:26;11.37;92.18
71942;DHT22;59997;53.300;-6.260;2023-07-20T04:42:51;11.37;92.17
71942;DHT22;59997;53.300;-6.260;2023-07-20T04:45:17;11.40;92.15
71942;DHT22;59997;53.300;-6.260;2023-07-20T04:47:44;11.37;92.18
71942;DHT22;59997;53.300;-6.260;2023-07-20T04:50:09;11.44;92.17
71942;DHT22;59997;53.300;-6.260;2023-07-20T04:52:35;11.47;92.14
71942;DHT22;59997;53.300;-6.260;2023-07-20T04:55:00;11.57;92.01
71942;DHT22;59997;53.300;-6.260;2023-07-20T04:57:26;11.56;92.00
71942;DHT22;59997;53.300;-6.260;2023-07-20T04:59:52;11.52;92.00
71942;DHT22;59997;53.300;-6.260;2023-07-20T05:02:17;11.52;91.97
71942;DHT22;59997;53.300;-6.260;2023-07-20T05:04:43;11.54;92.01
71942;DHT22;59997;53.300;-6.260;2023-07-20T05:07:08;11.59;91.97
71942;DHT22;59997;53.300;-6.260;2023-07-20T05:09:34;11.56;91.96
71942;DHT22;59997;53.300;-6.260;2023-07-20T05:11:59;11.59;91.91
71942;DHT22;59997;53.300;-6.260;2023-07-20T05:14:24;11.69;91.90
71942;DHT22;59997;53.300;-6.260;2023-07-20T05:16:50;11.73;91.86
71942;DHT22;59997;53.300;-6.260;2023-07-20T05:19:15;11.84;91.79
71942;DHT22;59997;53.300;-6.260;2023-07-20T05:21:41;11.92;91.69
71942;DHT22;59997;53.300;-6.260;2023-07-20T05:24:06;11.94;91.65
71942;DHT22;59997;53.300;-6.260;2023-07-20T05:26:32;11.98;91.62
71942;DHT22;59997;53.300;-6.260;2023-07-20T05:28:58;11.99;91.65
71942;DHT22;59997;53.300;-6.260;2023-07-20T05:31:24;12.01;91.59
71942;DHT22;59997;53.300;-6.260;2023-07-20T05:33:51;12.06;91.59
71942;DHT22;59997;53.300;-6.260;2023-07-20T05:36:16;12.13;91.56
71942;DHT22;59997;53.300;-6.260;2023-07-20T05:38:42;12.22;91.48
71942;DHT22;59997;53.300;-6.260;2023-07-20T05:41:07;12.28;91.40
71942;DHT22;59997;53.300;-6.260;2023-07-20T05:43:35;12.34;91.44
71942;DHT22;59997;53.300;-6.260;2023-07-20T05:46:01;12.39;91.38
71942;DHT22;59997;53.300;-6.260;2023-07-20T05:48:26;12.47;91.33
71942;DHT22;59997;53.300;-6.260;2023-07-20T05:50:52;12.49;91.23
71942;DHT22;59997;53.300;-6.260;2023-07-20T05:53:17;12.53;91.16
71942;DHT22;59997;53.300;-6.260;2023-07-20T05:55:43;12.58;91.09
71942;DHT22;59997;53.300;-6.260;2023-07-20T05:58:08;12.58;91.00
71942;DHT22;59997;53.300;-6.260;2023-07-20T06:00:34;12.64;90.92
71942;DHT22;59997;53.300;-6.260;2023-07-20T06:02:59;12.71;90.86
71942;DHT22;59997;53.300;-6.260;2023-07-20T06:05:25;12.82;90.81
71942;DHT22;59997;53.300;-6.260;2023-07-20T06:07:51;12.89;90.73
71942;DHT22;59997;53.300;-6.260;2023-07-20T06:10:16;12.96;90.59
71942;DHT22;59997;53.300;-6.260;2023-07-20T06:12:42;13.06;90.63
71942;DHT22;59997;53.300;-6.260;2023-07-20T06:15:24;13.12;90.57
71942;DHT22;59997;53.300;-6.260;2023-07-20T06:17:51;13.10;90.28
71942;DHT22;59997;53.300;-6.260;2023-07-20T06:20:16;13.22;90.12
71942;DHT22;59997;53.300;-6.260;2023-07-20T06:22:44;13.32;90.16
71942;DHT22;59997;53.300;-6.260;2023-07-20T06:25:10;13.33;89.51
71942;DHT22;59997;53.300;-6.260;2023-07-20T06:27:36;13.44;88.98
71942;DHT22;59997;53.300;-6.260;2023-07-20T06:30:01;13.47;88.48
71942;DHT22;59997;53.300;-6.260;2023-07-20T06:32:27;13.57;88.89
71942;DHT22;59997;53.300;-6.260;2023-07-20T06:34:52;13.60;88.54
71942;DHT22;59997;53.300;-6.260;2023-07-20T06:37:18;13.65;88.38
71942;DHT22;59997;53.300;-6.260;2023-07-20T06:39:45;13.62;88.18
71942;DHT22;59997;53.300;-6.260;2023-07-20T06:42:11;13.68;88.41
71942;DHT22;59997;53.300;-6.260;2023-07-20T06:44:36;13.72;88.21
71942;DHT22;59997;53.300;-6.260;2023-07-20T06:47:02;13.77;88.50
71942;DHT22;59997;53.300;-6.260;2023-07-20T06:49:28;13.77;87.38
71942;DHT22;59997;53.300;-6.260;2023-07-20T06:51:54;13.85;87.34
71942;DHT22;59997;53.300;-6.260;2023-07-20T06:54:20;13.90;87.14
71942;DHT22;59997;53.300;-6.260;2023-07-20T06:56:45;14.09;87.24
71942;DHT22;59997;53.300;-6.260;2023-07-20T06:59:11;14.14;86.85
71942;DHT22;59997;53.300;-6.260;2023-07-20T07:01:36;14.23;86.66
71942;DHT22;59997;53.300;-6.260;2023-07-20T07:04:02;14.33;86.16
71942;DHT22;59997;53.300;-6.260;2023-07-20T07:06:28;14.41;85.56
71942;DHT22;59997;53.300;-6.260;2023-07-20T07:08:54;14.72;85.41
71942;DHT22;59997;53.300;-6.260;2023-07-20T07:11:21;15.21;84.33
71942;DHT22;59997;53.300;-6.260;2023-07-20T07:13:47;15.81;83.21
71942;DHT22;59997;53.300;-6.260;2023-07-20T07:16:14;15.65;81.93
71942;DHT22;59997;53.300;-6.260;2023-07-20T07:18:46;15.78;81.50
71942;DHT22;59997;53.300;-6.260;2023-07-20T07:21:12;15.59;81.81
71942;DHT22;59997;53.300;-6.260;2023-07-20T07:23:40;15.87;80.16
71942;DHT22;59997;53.300;-6.260;2023-07-20T07:26:06;17.00;78.71
71942;DHT22;59997;53.300;-6.260;2023-07-20T07:28:31;17.50;76.18
71942;DHT22;59997;53.300;-6.260;2023-07-20T07:30:59;17.06;76.91
71942;DHT22;59997;53.300;-6.260;2023-07-20T07:33:26;17.28;75.36
71942;DHT22;59997;53.300;-6.260;2023-07-20T07:35:51;18.01;74.01
71942;DHT22;59997;53.300;-6.260;2023-07-20T07:38:18;18.40;71.95
71942;DHT22;59997;53.300;-6.260;2023-07-20T07:40:44;19.18;71.01
71942;DHT22;59997;53.300;-6.260;2023-07-20T07:43:09;19.70;68.65
71942;DHT22;59997;53.300;-6.260;2023-07-20T07:45:35;20.13;66.44
71942;DHT22;59997;53.300;-6.260;2023-07-20T07:48:04;20.36;65.24
71942;DHT22;59997;53.300;-6.260;2023-07-20T07:50:30;20.39;64.42
71942;DHT22;59997;53.300;-6.260;2023-07-20T07:52:56;20.60;63.37
71942;DHT22;59997;53.300;-6.260;2023-07-20T07:55:21;20.37;62.62
71942;DHT22;59997;53.300;-6.260;2023-07-20T07:57:47;20.32;64.41
71942;DHT22;59997;53.300;-6.260;2023-07-20T08:00:13;19.02;67.06
71942;DHT22;59997;53.300;-6.260;2023-07-20T08:02:43;17.84;70.38
71942;DHT22;59997;53.300;-6.260;2023-07-20T08:05:09;17.97;72.40
71942;DHT22;59997;53.300;-6.260;2023-07-20T08:07:38;18.02;71.34
71942;DHT22;59997;53.300;-6.260;2023-07-20T08:10:04;17.62;71.08
71942;DHT22;59997;53.300;-6.260;2023-07-20T08:12:30;18.15;69.45
71942;DHT22;59997;53.300;-6.260;2023-07-20T08:14:55;18.25;69.61
71942;DHT22;59997;53.300;-6.260;2023-07-20T08:17:21;18.53;68.19
71942;DHT22;59997;53.300;-6.260;2023-07-20T08:19:47;18.83;67.03
71942;DHT22;59997;53.300;-6.260;2023-07-20T08:22:12;19.51;63.80
71942;DHT22;59997;53.300;-6.260;2023-07-20T08:24:42;19.67;64.72
71942;DHT22;59997;53.300;-6.260;2023-07-20T08:27:08;19.37;62.48
71942;DHT22;59997;53.300;-6.260;2023-07-20T08:29:34;19.96;64.59
71942;DHT22;59997;53.300;-6.260;2023-07-20T08:32:00;20.30;62.07
71942;DHT22;59997;53.300;-6.260;2023-07-20T08:34:25;20.74;60.79
71942;DHT22;59997;53.300;-6.260;2023-07-20T08:36:51;20.64;60.56
71942;DHT22;59997;53.300;-6.260;2023-07-20T08:39:17;20.79;61.87
71942;DHT22;59997;53.300;-6.260;2023-07-20T08:41:43;20.30;59.26
71942;DHT22;59997;53.300;-6.260;2023-07-20T08:44:10;20.44;61.53
71942;DHT22;59997;53.300;-6.260;2023-07-20T08:46:38;20.91;60.78
71942;DHT22;59997;53.300;-6.260;2023-07-20T08:49:04;21.66;61.38
71942;DHT22;59997;53.300;-6.260;2023-07-20T08:51:30;21.83;57.36
71942;DHT22;59997;53.300;-6.260;2023-07-20T08:53:56;20.84;60.38
71942;DHT22;59997;53.300;-6.260;2023-07-20T08:56:23;19.15;62.58
71942;DHT22;59997;53.300;-6.260;2023-07-20T08:58:51;19.18;64.61
71942;DHT22;59997;53.300;-6.260;2023-07-20T09:01:17;19.85;61.58
71942;DHT22;59997;53.300;-6.260;2023-07-20T09:03:45;19.49;63.37
71942;DHT22;59997;53.300;-6.260;2023-07-20T09:06:10;19.74;63.75
71942;DHT22;59997;53.300;-6.260;2023-07-20T09:08:40;20.58;59.32
71942;DHT22;59997;53.300;-6.260;2023-07-20T09:11:06;21.30;59.15
71942;DHT22;59997;53.300;-6.260;2023-07-20T09:13:35;22.00;56.97
71942;DHT22;59997;53.300;-6.260;2023-07-20T09:16:00;22.41;54.67
71942;DHT22;59997;53.300;-6.260;2023-07-20T09:18:30;23.11;59.02
71942;DHT22;59997;53.300;-6.260;2023-07-20T09:21:01;23.95;51.46
71942;DHT22;59997;53.300;-6.260;2023-07-20T09:23:37;23.31;49.10
71942;DHT22;59997;53.300;-6.260;2023-07-20T09:26:13;21.12;55.97
71942;DHT22;59997;53.300;-6.260;2023-07-20T09:28:54;21.06;58.32
71942;DHT22;59997;53.300;-6.260;2023-07-20T09:31:21;21.65;56.63
71942;DHT22;59997;53.300;-6.260;2023-07-20T09:33:48;21.82;54.81
71942;DHT22;59997;53.300;-6.260;2023-07-20T09:36:14;21.36;53.55
71942;DHT22;59997;53.300;-6.260;2023-07-20T09:38:41;20.36;58.94
71942;DHT22;59997;53.300;-6.260;2023-07-20T09:41:07;19.53;59.66
71942;DHT22;59997;53.300;-6.260;2023-07-20T09:43:35;19.01;61.08
71942;DHT22;59997;53.300;-6.260;2023-07-20T09:46:02;18.55;62.05
71942;DHT22;59997;53.300;-6.260;2023-07-20T09:48:27;18.16;63.13
71942;DHT22;59997;53.300;-6.260;2023-07-20T09:50:53;17.97;64.25
71942;DHT22;59997;53.300;-6.260;2023-07-20T09:53:20;17.62;63.56
71942;DHT22;59997;53.300;-6.260;2023-07-20T09:55:46;17.36;65.68
71942;DHT22;59997;53.300;-6.260;2023-07-20T09:58:13;17.35;67.77
71942;DHT22;59997;53.300;-6.260;2023-07-20T10:00:40;16.95;71.22
71942;DHT22;59997;53.300;-6.260;2023-07-20T10:03:10;16.48;73.37
71942;DHT22;59997;53.300;-6.260;2023-07-20T10:05:42;16.16;75.65
71942;DHT22;59997;53.300;-6.260;2023-07-20T10:08:11;15.93;75.06
71942;DHT22;59997;53.300;-6.260;2023-07-20T10:10:38;16.10;75.90
71942;DHT22;59997;53.300;-6.260;2023-07-20T10:13:10;16.32;75.79
71942;DHT22;59997;53.300;-6.260;2023-07-20T10:15:50;16.75;73.67
71942;DHT22;59997;53.300;-6.260;2023-07-20T10:18:29;17.11;71.25
71942;DHT22;59997;53.300;-6.260;2023-07-20T10:20:57;17.59;69.32
71942;DHT22;59997;53.300;-6.260;2023-07-20T10:23:26;18.26;70.65
71942;DHT22;59997;53.300;-6.260;2023-07-20T10:25:54;18.78;67.38
71942;DHT22;59997;53.300;-6.260;2023-07-20T10:28:21;19.11;67.17
71942;DHT22;59997;53.300;-6.260;2023-07-20T10:30:48;18.85;64.51
71942;DHT22;59997;53.300;-6.260;2023-07-20T10:33:16;18.57;66.63
71942;DHT22;59997;53.300;-6.260;2023-07-20T10:35:56;17.84;67.38
71942;DHT22;59997;53.300;-6.260;2023-07-20T10:38:42;17.65;68.09
71942;DHT22;59997;53.300;-6.260;2023-07-20T10:41:31;17.66;69.40
71942;DHT22;59997;53.300;-6.260;2023-07-20T10:44:06;17.80;68.07
71942;DHT22;59997;53.300;-6.260;2023-07-20T10:49:08;18.77;67.52
71942;DHT22;59997;53.300;-6.260;2023-07-20T10:51:47;19.46;65.72
71942;DHT22;59997;53.300;-6.260;2023-07-20T10:56:42;19.09;63.13
71942;DHT22;59997;53.300;-6.260;2023-07-20T10:59:37;18.35;64.09
71942;DHT22;59997;53.300;-6.260;2023-07-20T11:02:08;18.08;66.71
71942;DHT22;59997;53.300;-6.260;2023-07-20T11:04:46;17.03;72.29
71942;DHT22;59997;53.300;-6.260;2023-07-20T11:07:37;16.40;74.72
71942;DHT22;59997;53.300;-6.260;2023-07-20T11:10:13;16.24;76.71
71942;DHT22;59997;53.300;-6.260;2023-07-20T11:12:40;16.40;78.66
71942;DHT22;59997;53.300;-6.260;2023-07-20T11:15:06;16.36;79.32
71942;DHT22;59997;53.300;-6.260;2023-07-20T11:17:32;16.27;78.51
71942;DHT22;59997;53.300;-6.260;2023-07-20T11:20:01;16.31;78.37
71942;DHT22;59997;53.300;-6.260;2023-07-20T11:22:28;16.70;78.39
71942;DHT22;59997;53.300;-6.260;2023-07-20T11:24:57;17.12;74.31
71942;DHT22;59997;53.300;-6.260;2023-07-20T11:27:23;18.55;69.97
71942;DHT22;59997;53.300;-6.260;2023-07-20T11:29:49;19.54;65.44
71942;DHT22;59997;53.300;-6.260;2023-07-20T11:32:24;19.37;61.66
71942;DHT22;59997;53.300;-6.260;2023-07-20T11:34:50;18.56;63.46
71942;DHT22;59997;53.300;-6.260;2023-07-20T11:37:17;18.45;66.18
71942;DHT22;59997;53.300;-6.260;2023-07-20T11:39:43;18.19;67.56
71942;DHT22;59997;53.300;-6.260;2023-07-20T11:42:08;17.73;68.60
71942;DHT22;59997;53.300;-6.260;2023-07-20T11:44:34;17.39;71.68
71942;DHT22;59997;53.300;-6.260;2023-07-20T11:47:11;17.06;69.87
71942;DHT22;59997;53.300;-6.260;2023-07-20T11:49:38;16.75;71.65
71942;DHT22;59997;53.300;-6.260;2023-07-20T11:52:08;16.72;71.16
71942;DHT22;59997;53.300;-6.260;2023-07-20T11:54:35;16.83;71.21
71942;DHT22;59997;53.300;-6.260;2023-07-20T11:57:03;18.64;66.76
71942;DHT22;59997;53.300;-6.260;2023-07-20T11:59:28;20.44;64.82
71942;DHT22;59997;53.300;-6.260;2023-07-20T12:01:54;21.43;58.55
71942;DHT22;59997;53.300;-6.260;2023-07-20T12:04:22;21.39;53.73
71942;DHT22;59997;53.300;-6.260;2023-07-20T12:06:48;21.57;61.33
71942;DHT22;59997;53.300;-6.260;2023-07-20T12:09:14;21.75;55.19
71942;DHT22;59997;53.300;-6.260;2023-07-20T12:11:43;21.39;56.75
71942;DHT22;59997;53.300;-6.260;2023-07-20T12:14:09;21.92;55.15
71942;DHT22;59997;53.300;-6.260;2023-07-20T12:16:36;21.47;56.89
71942;DHT22;59997;53.300;-6.260;2023-07-20T12:21:31;22.18;58.67
71942;DHT22;59997;53.300;-6.260;2023-07-20T12:23:58;21.47;53.58
71942;DHT22;59997;53.300;-6.260;2023-07-20T12:26:24;20.72;55.03
71942;DHT22;59997;53.300;-6.260;2023-07-20T12:28:51;19.88;58.62
71942;DHT22;59997;53.300;-6.260;2023-07-20T12:31:16;19.15;62.41
71942;DHT22;59997;53.300;-6.260;2023-07-20T12:33:42;18.53;65.36
71942;DHT22;59997;53.300;-6.260;2023-07-20T12:36:09;18.18;62.61
71942;DHT22;59997;53.300;-6.260;2023-07-20T12:38:35;18.04;65.94
71942;DHT22;59997;53.300;-6.260;2023-07-20T12:41:01;17.80;64.07
71942;DHT22;59997;53.300;-6.260;2023-07-20T12:43:27;17.76;64.85
71942;DHT22;59997;53.300;-6.260;2023-07-20T12:45:53;17.88;62.58
71942;DHT22;59997;53.300;-6.260;2023-07-20T12:48:18;18.07;61.54
71942;DHT22;59997;53.300;-6.260;2023-07-20T12:50:44;18.18;59.63
71942;DHT22;59997;53.300;-6.260;2023-07-20T12:53:09;18.35;59.35
71942;DHT22;59997;53.300;-6.260;2023-07-20T12:55:35;18.46;60.40
71942;DHT22;59997;53.300;-6.260;2023-07-20T12:58:00;18.52;60.57
71942;DHT22;59997;53.300;-6.260;2023-07-20T13:00:26;18.70;60.68
71942;DHT22;59997;53.300;-6.260;2023-07-20T13:02:52;19.07;60.69
71942;DHT22;59997;53.300;-6.260;2023-07-20T13:05:17;19.45;57.95
71942;DHT22;59997;53.300;-6.260;2023-07-20T13:07:43;19.32;55.89
71942;DHT22;59997;53.300;-6.260;2023-07-20T13:10:10;19.14;55.91
71942;DHT22;59997;53.300;-6.260;2023-07-20T13:12:37;19.33;56.64
71942;DHT22;59997;53.300;-6.260;2023-07-20T13:15:05;19.54;53.86
71942;DHT22;59997;53.300;-6.260;2023-07-20T13:17:32;19.53;54.95
71942;DHT22;59997;53.300;-6.260;2023-07-20T13:19:57;19.23;54.71
71942;DHT22;59997;53.300;-6.260;2023-07-20T13:22:23;19.12;56.18
71942;DHT22;59997;53.300;-6.260;2023-07-20T13:24:48;18.87;56.42
71942;DHT22;59997;53.300;-6.260;2023-07-20T13:27:16;18.57;56.02
71942;DHT22;59997;53.300;-6.260;2023-07-20T13:29:41;18.46;57.83
71942;DHT22;59997;53.300;-6.260;2023-07-20T13:32:07;18.26;57.92
71942;DHT22;59997;53.300;-6.260;2023-07-20T13:34:33;18.01;59.33
71942;DHT22;59997;53.300;-6.260;2023-07-20T13:36:59;17.91;59.37
71942;DHT22;59997;53.300;-6.260;2023-07-20T13:39:25;18.04;62.35
71942;DHT22;59997;53.300;-6.260;2023-07-20T13:41:52;18.22;61.92
71942;DHT22;59997;53.300;-6.260;2023-07-20T13:44:19;18.38;62.12
71942;DHT22;59997;53.300;-6.260;2023-07-20T13:46:46;18.56;61.86
71942;DHT22;59997;53.300;-6.260;2023-07-20T13:49:12;18.45;61.04
71942;DHT22;59997;53.300;-6.260;2023-07-20T13:51:37;18.15;61.53
71942;DHT22;59997;53.300;-6.260;2023-07-20T13:54:03;18.09;62.73
71942;DHT22;59997;53.300;-6.260;2023-07-20T13:56:29;17.93;63.95
71942;DHT22;59997;53.300;-6.260;2023-07-20T13:58:54;17.67;65.12
71942;DHT22;59997;53.300;-6.260;2023-07-20T14:01:20;17.35;66.26
71942;DHT22;59997;53.300;-6.260;2023-07-20T14:03:45;16.99;67.05
71942;DHT22;59997;53.300;-6.260;2023-07-20T14:06:11;16.79;68.39
71942;DHT22;59997;53.300;-6.260;2023-07-20T14:08:38;16.60;69.43
71942;DHT22;59997;53.300;-6.260;2023-07-20T14:11:04;16.24;71.99
71942;DHT22;59997;53.300;-6.260;2023-07-20T14:13:29;16.08;71.87
71942;DHT22;59997;53.300;-6.260;2023-07-20T14:15:55;16.04;72.07
71942;DHT22;59997;53.300;-6.260;2023-07-20T14:18:20;16.04;71.88
71942;DHT22;59997;53.300;-6.260;2023-07-20T14:20:46;16.18;71.75
71942;DHT22;59997;53.300;-6.260;2023-07-20T14:23:11;16.24;71.65
71942;DHT22;59997;53.300;-6.260;2023-07-20T14:25:36;16.25;70.43
71942;DHT22;59997;53.300;-6.260;2023-07-20T14:28:02;16.45;69.94
71942;DHT22;59997;53.300;-6.260;2023-07-20T14:30:27;16.70;69.16
71942;DHT22;59997;53.300;-6.260;2023-07-20T14:32:53;16.91;68.34
71942;DHT22;59997;53.300;-6.260;2023-07-20T14:35:18;17.04;68.48
71942;DHT22;59997;53.300;-6.260;2023-07-20T14:37:45;17.21;66.64
71942;DHT22;59997;53.300;-6.260;2023-07-20T14:40:12;17.35;67.86
71942;DHT22;59997;53.300;-6.260;2023-07-20T14:42:38;17.57;65.66
71942;DHT22;59997;53.300;-6.260;2023-07-20T14:45:04;17.66;65.52
71942;DHT22;59997;53.300;-6.260;2023-07-20T14:47:30;17.84;66.14
71942;DHT22;59997;53.300;-6.260;2023-07-20T14:49:58;18.08;64.98
71942;DHT22;59997;53.300;-6.260;2023-07-20T14:52:23;18.28;64.76
71942;DHT22;59997;53.300;-6.260;2023-07-20T14:54:49;18.60;63.64
71942;DHT22;59997;53.300;-6.260;2023-07-20T14:57:14;18.71;62.80
71942;DHT22;59997;53.300;-6.260;2023-07-20T14:59:41;18.95;60.29
71942;DHT22;59997;53.300;-6.260;2023-07-20T15:02:09;18.98;59.75
71942;DHT22;59997;53.300;-6.260;2023-07-20T15:04:34;18.92;60.18
71942;DHT22;59997;53.300;-6.260;2023-07-20T15:07:00;18.98;59.86
71942;DHT22;59997;53.300;-6.260;2023-07-20T15:09:25;19.27;60.37
71942;DHT22;59997;53.300;-6.260;2023-07-20T15:11:51;19.47;62.02
71942;DHT22;59997;53.300;-6.260;2023-07-20T15:14:16;20.08;58.61
71942;DHT22;59997;53.300;-6.260;2023-07-20T15:16:42;20.63;56.47
71942;DHT22;59997;53.300;-6.260;2023-07-20T15:19:08;21.50;57.32
71942;DHT22;59997;53.300;-6.260;2023-07-20T15:21:34;21.61;52.78
71942;DHT22;59997;53.300;-6.260;2023-07-20T15:24:00;21.03;53.41
71942;DHT22;59997;53.300;-6.260;2023-07-20T15:26:25;20.67;54.35
71942;DHT22;59997;53.300;-6.260;2023-07-20T15:28:51;20.51;54.59